Time;durP1;ratioP1;P1;durP2;ratioP2;P2;SDS_P1;SDS_P2;PMS_P1;PMS_P2;Temp;Humidity;BMP_temperature;BMP_pressure;BME280_temperature;BME280_humidity;BME280_pressure;Samples;Min_cycle;Max_cycle;Signal;HPM_P1;HPM_P2
2021/01/11 00:00:47;;;;;;;;;20.75;17.50;;;;;17.27;54.87;99583.25;5064030;28;11414;-71
2021/01/11 00:03:15;;;;;;;;;18.50;17.50;;;;;17.27;55.36;99593.91;5063554;28;11451;-70
2021/01/11 00:05:44;;;;;;;;;18.50;15.25;;;;;17.30;54.04;99596.00;5062227;28;11378;-70
2021/01/11 00:08:12;;;;;;;;;19.00;17.00;;;;;17.19;54.76;99590.03;5063674;28;11423;-70
2021/01/11 00:10:41;;;;;;;;;18.00;18.00;;;;;17.26;54.44;99603.00;5072721;28;11516;-71
2021/01/11 00:13:10;;;;;;;;;19.00;17.50;;;;;17.18;55.58;99606.31;5059740;28;11419;-70
2021/01/11 00:15:38;;;;;;;;;20.00;18.00;;;;;17.21;55.47;99621.72;5059212;28;11457;-71
2021/01/11 00:18:06;;;;;;;;;15.25;15.25;;;;;17.19;54.90;99630.00;5063376;28;12171;-70
2021/01/11 00:20:35;;;;;;;;;20.00;16.25;;;;;17.16;54.60;99633.25;5059181;28;11532;-70
2021/01/11 00:23:03;;;;;;;;;20.50;16.50;;;;;17.21;55.45;99640.38;5057847;28;12183;-70
2021/01/11 00:25:31;;;;;;;;;17.75;17.75;;;;;17.16;54.08;99635.13;5066701;28;11402;-70
2021/01/11 00:28:00;;;;;;;;;16.75;14.25;;;;;17.21;55.31;99651.84;5064567;28;11430;-70
2021/01/11 00:30:28;;;;;;;;;14.75;12.75;;;;;17.20;55.05;99660.94;5065540;28;11434;-70
2021/01/11 00:32:56;;;;;;;;;18.25;15.50;;;;;17.23;53.77;99659.56;5062958;28;11394;-71
2021/01/11 00:35:25;;;;;;;;;21.25;16.50;;;;;17.27;54.90;99665.91;5062262;28;11396;-70
2021/01/11 00:37:53;;;;;;;;;18.00;16.00;;;;;17.26;54.60;99662.44;5061735;28;11422;-71
2021/01/11 00:40:21;;;;;;;;;14.25;13.00;;;;;17.35;55.46;99667.13;5057115;28;11443;-71
2021/01/11 00:42:50;;;;;;;;;11.50;11.50;;;;;17.38;55.06;99685.22;5056447;28;11376;-76
2021/01/11 00:45:18;;;;;;;;;17.50;17.00;;;;;17.41;53.75;99690.78;5057612;28;11390;-73
2021/01/11 00:47:46;;;;;;;;;14.00;14.00;;;;;17.41;53.52;99685.44;5059042;28;11426;-73
2021/01/11 00:50:15;;;;;;;;;19.00;14.00;;;;;17.51;54.04;99690.63;5066746;28;11427;-70
2021/01/11 00:52:43;;;;;;;;;14.75;11.50;;;;;17.58;53.35;99688.38;5068458;28;12144;-69
2021/01/11 00:55:12;;;;;;;;;13.50;11.50;;;;;17.64;53.38;99691.78;5065110;28;11443;-71
2021/01/11 00:57:42;;;;;;;;;14.50;14.50;;;;;17.73;53.50;99694.63;5065764;28;11397;-70
2021/01/11 01:00:12;;;;;;;;;17.75;15.50;;;;;17.81;54.21;99692.06;5067392;28;11426;-71
2021/01/11 01:02:40;;;;;;;;;15.50;13.50;;;;;17.88;53.53;99697.84;5065336;28;11396;-71
2021/01/11 01:05:11;;;;;;;;;16.50;15.00;;;;;17.95;53.74;99702.81;5066028;28;11416;-71
2021/01/11 01:07:42;;;;;;;;;19.00;14.25;;;;;17.98;53.04;99704.09;5062259;28;11454;-71
2021/01/11 01:10:14;;;;;;;;;17.50;14.75;;;;;18.02;53.43;99702.44;5066563;28;11422;-71
2021/01/11 01:12:43;;;;;;;;;16.25;16.25;;;;;18.07;53.34;99713.81;5060366;28;11417;-71
2021/01/11 01:15:11;;;;;;;;;16.50;14.00;;;;;18.12;53.00;99718.28;5061024;28;11423;-71
2021/01/11 01:17:42;;;;;;;;;15.75;15.25;;;;;18.17;52.53;99719.00;5063816;28;11406;-71
2021/01/11 01:20:19;;;;;;;;;17.50;14.00;;;;;18.18;52.85;99714.44;5066186;28;11415;-72
2021/01/11 01:22:48;;;;;;;;;11.75;9.00;;;;;18.27;52.39;99726.00;5060823;28;11404;-72
2021/01/11 01:25:16;;;;;;;;;19.25;15.50;;;;;18.30;52.05;99733.44;5066827;28;11388;-72
2021/01/11 01:27:45;;;;;;;;;16.00;14.00;;;;;18.30;52.32;99738.00;5053362;28;11401;-71
2021/01/11 01:30:13;;;;;;;;;18.00;16.25;;;;;18.31;52.41;99734.22;5066001;28;11402;-71
2021/01/11 01:32:42;;;;;;;;;13.25;12.75;;;;;18.22;53.00;99712.75;5066049;28;11532;-73
2021/01/11 01:35:11;;;;;;;;;13.00;13.00;;;;;18.42;52.50;99735.63;5063043;28;11477;-76
2021/01/11 01:37:40;;;;;;;;;12.75;12.00;;;;;18.47;51.85;99733.69;5059031;28;11523;-71
2021/01/11 01:40:10;;;;;;;;;7.00;5.50;;;;;18.55;52.01;99745.56;5067011;28;11410;-71
2021/01/11 01:42:38;;;;;;;;;15.00;13.50;;;;;18.59;51.79;99746.56;5056226;28;11480;-71
2021/01/11 01:45:07;;;;;;;;;11.50;10.00;;;;;18.63;51.75;99752.13;5059958;28;11422;-70
2021/01/11 01:47:36;;;;;;;;;11.25;10.00;;;;;18.64;52.17;99754.50;5068465;28;11413;-70
2021/01/11 01:50:06;;;;;;;;;13.25;9.50;;;;;18.70;52.36;99756.00;5071665;28;11426;-71
2021/01/11 01:52:37;;;;;;;;;13.75;10.00;;;;;18.74;52.32;99767.69;5062626;28;11386;-71
2021/01/11 01:55:12;;;;;;;;;14.00;11.00;;;;;18.78;51.70;99774.03;5057499;28;11406;-72
2021/01/11 01:57:42;;;;;;;;;11.75;9.00;;;;;18.83;52.24;99762.47;5064888;28;11412;-71
2021/01/11 02:00:11;;;;;;;;;11.25;10.25;;;;;18.89;51.83;99763.94;5055501;28;11144;-72
2021/01/11 02:02:39;;;;;;;;;7.50;7.50;;;;;18.90;51.76;99760.19;5070006;28;11377;-71
2021/01/11 02:05:08;;;;;;;;;8.50;8.50;;;;;18.94;51.87;99750.47;5063411;28;11637;-71
2021/01/11 02:07:49;;;;;;;;;10.00;8.25;;;;;19.03;51.66;99767.41;5060044;28;11210;-71
2021/01/11 02:10:27;;;;;;;;;9.00;9.00;;;;;19.06;51.39;99766.03;5061616;28;12138;-70
2021/01/11 02:13:22;;;;;;;;;7.75;7.50;;;;;19.03;51.37;99767.41;5058994;28;11415;-71
2021/01/11 02:16:30;;;;;;;;;7.25;7.25;;;;;19.07;51.59;99772.97;5054452;28;11118;-72
2021/01/11 02:19:18;;;;;;;;;12.25;11.25;;;;;19.14;51.29;99771.47;5057749;28;11203;-72
2021/01/11 02:22:04;;;;;;;;;10.25;9.00;;;;;19.22;51.13;99770.00;5051514;28;11214;-70
2021/01/11 02:24:48;;;;;;;;;8.00;8.00;;;;;19.21;51.18;99769.19;5052367;28;11410;-69
2021/01/11 02:27:19;;;;;;;;;10.00;7.50;;;;;19.20;51.16;99772.97;5065708;28;11243;-70
2021/01/11 02:30:00;;;;;;;;;10.75;9.25;;;;;19.24;51.33;99765.13;5061972;28;11235;-70
2021/01/11 02:32:30;;;;;;;;;12.00;10.25;;;;;19.28;51.14;99768.00;5051255;28;11224;-70
2021/01/11 02:35:03;;;;;;;;;10.25;10.25;;;;;19.32;51.26;99767.09;5050255;28;12025;-70
2021/01/11 02:37:33;;;;;;;;;9.50;9.50;;;;;19.34;51.08;99772.16;5050584;28;11215;-71
2021/01/11 02:40:02;;;;;;;;;9.00;9.00;;;;;19.39;50.91;99777.41;5063941;28;11102;-71
2021/01/11 02:42:30;;;;;;;;;7.75;7.75;;;;;19.36;50.98;99773.44;5066432;28;11090;-71
2021/01/11 02:44:59;;;;;;;;;7.00;7.00;;;;;19.38;50.87;99760.56;5059406;28;11113;-70
2021/01/11 02:47:35;;;;;;;;;11.25;9.25;;;;;19.51;51.17;99772.31;5056274;28;11184;-68
2021/01/11 02:50:04;;;;;;;;;9.75;8.75;;;;;19.60;50.91;99769.75;5054949;28;11212;-70
2021/01/11 02:52:50;;;;;;;;;7.25;6.00;;;;;19.69;50.71;99774.06;5070638;28;11102;-70
2021/01/11 02:55:25;;;;;;;;;11.00;10.00;;;;;19.75;50.46;99777.44;5061684;28;11153;-69
2021/01/11 02:58:12;;;;;;;;;9.00;8.25;;;;;19.74;50.52;99770.50;5065083;28;11063;-71
2021/01/11 03:00:43;;;;;;;;;11.00;9.00;;;;;19.80;50.64;99777.31;5074713;28;11048;-69
2021/01/11 03:03:15;;;;;;;;;11.25;11.25;;;;;19.83;50.47;99766.00;5074569;28;11149;-70
2021/01/11 03:05:44;;;;;;;;;9.25;8.50;;;;;19.89;50.49;99764.78;5071829;28;11199;-69
2021/01/11 03:08:13;;;;;;;;;10.75;10.00;;;;;19.94;50.43;99769.25;5054395;28;11069;-70
2021/01/11 03:10:41;;;;;;;;;10.50;9.00;;;;;19.92;50.58;99756.16;5057144;28;10979;-70
2021/01/11 03:13:09;;;;;;;;;10.00;8.00;;;;;20.07;50.28;99768.41;5054195;28;11091;-70
2021/01/11 03:15:38;;;;;;;;;8.75;7.50;;;;;20.08;50.39;99751.22;5063104;28;11035;-70
2021/01/11 03:18:06;;;;;;;;;9.00;9.00;;;;;20.17;50.35;99758.22;5063711;28;11150;-71
2021/01/11 03:20:35;;;;;;;;;11.25;9.00;;;;;20.26;50.22;99752.94;5056602;28;10929;-70
2021/01/11 03:23:03;;;;;;;;;8.00;8.00;;;;;20.33;50.26;99757.84;5060981;28;10711;-70
2021/01/11 03:25:32;;;;;;;;;8.25;8.25;;;;;20.36;50.13;99755.34;5065232;28;10899;-70
2021/01/11 03:28:03;;;;;;;;;7.50;7.50;;;;;20.39;50.06;99746.75;5067559;28;10876;-69
2021/01/11 03:30:31;;;;;;;;;11.25;10.00;;;;;20.44;49.91;99745.81;5067518;28;10752;-72
2021/01/11 03:32:59;;;;;;;;;8.75;8.75;;;;;20.49;49.82;99751.06;5064121;28;10883;-71
2021/01/11 03:35:28;;;;;;;;;10.00;10.00;;;;;20.47;50.09;99743.31;5068309;28;10717;-71
2021/01/11 03:37:57;;;;;;;;;9.50;9.00;;;;;20.60;49.81;99755.06;5070367;28;10889;-70
2021/01/11 03:40:25;;;;;;;;;11.25;10.00;;;;;20.57;49.69;99739.59;5068446;28;10919;-71
2021/01/11 03:42:53;;;;;;;;;9.75;9.75;;;;;20.70;49.80;99744.06;5059929;28;10828;-69
2021/01/11 03:45:22;;;;;;;;;8.00;8.00;;;;;20.73;49.75;99740.75;5067885;28;10779;-70
2021/01/11 03:47:50;;;;;;;;;7.75;7.00;;;;;20.75;49.62;99733.19;5068090;28;10952;-69
2021/01/11 03:50:18;;;;;;;;;9.50;7.00;;;;;20.84;49.54;99741.25;5063352;28;10741;-69
2021/01/11 03:52:47;;;;;;;;;6.75;5.75;;;;;20.88;49.58;99749.47;5063060;28;10503;-69
2021/01/11 03:55:15;;;;;;;;;8.50;8.00;;;;;20.91;49.29;99736.22;5057078;28;10479;-70
2021/01/11 03:57:43;;;;;;;;;9.50;9.00;;;;;20.97;49.39;99744.91;5062410;28;10496;-71
2021/01/11 04:00:13;;;;;;;;;10.00;9.00;;;;;21.02;49.38;99742.09;5062708;28;10701;-71
2021/01/11 04:02:41;;;;;;;;;9.00;7.75;;;;;21.04;49.34;99737.22;5060750;28;10527;-71
2021/01/11 04:05:10;;;;;;;;;8.50;8.00;;;;;21.06;49.02;99730.44;5062285;28;10599;-70
2021/01/11 04:07:38;;;;;;;;;8.25;7.00;;;;;21.02;49.09;99718.75;5061224;28;10622;-69
2021/01/11 04:10:07;;;;;;;;;9.25;9.25;;;;;21.07;48.92;99737.38;5063582;28;10502;-70
2021/01/11 04:12:37;;;;;;;;;10.50;8.75;;;;;21.11;49.31;99724.13;5062178;28;10618;-70
2021/01/11 04:15:06;;;;;;;;;7.50;7.25;;;;;21.02;49.04;99693.81;5067546;28;10682;-71
2021/01/11 04:17:34;;;;;;;;;5.25;5.25;;;;;21.18;48.87;99706.47;5063928;28;10530;-71
2021/01/11 04:20:04;;;;;;;;;6.25;5.25;;;;;21.28;48.94;99705.41;5050942;28;10466;-70
2021/01/11 04:22:32;;;;;;;;;8.75;7.75;;;;;21.34;49.00;99706.06;5063715;28;10444;-69
2021/01/11 04:25:03;;;;;;;;;7.50;7.00;;;;;21.40;48.71;99699.44;5057949;28;10445;-69
2021/01/11 04:27:32;;;;;;;;;8.50;6.50;;;;;21.44;48.93;99692.31;5060656;28;10451;-70
2021/01/11 04:30:00;;;;;;;;;10.50;8.75;;;;;21.44;48.72;99686.97;5062993;28;10363;-69
2021/01/11 04:32:28;;;;;;;;;13.00;13.00;;;;;21.57;48.67;99685.22;5063474;28;10632;-71
2021/01/11 04:34:57;;;;;;;;;9.75;8.00;;;;;21.63;48.53;99684.75;5058607;28;10797;-71
2021/01/11 04:37:25;;;;;;;;;6.50;6.50;;;;;21.69;48.39;99678.13;5063731;28;10476;-72
2021/01/11 04:39:54;;;;;;;;;11.00;8.25;;;;;21.75;48.44;99668.00;5055413;28;10390;-69
2021/01/11 04:42:41;;;;;;;;;10.00;8.00;;;;;21.81;48.58;99655.97;5062638;28;10280;-68
2021/01/11 04:45:10;;;;;;;;;5.50;3.25;;;;;21.94;48.39;99662.28;5053128;28;10386;-71
2021/01/11 04:47:38;;;;;;;;;8.25;8.25;;;;;21.99;47.98;99657.53;5060680;28;10229;-68
2021/01/11 04:50:08;;;;;;;;;11.00;11.00;;;;;22.05;48.26;99652.81;5045160;28;10372;-68
2021/01/11 04:52:39;;;;;;;;;9.50;9.50;;;;;22.04;47.95;99646.63;5059363;28;10426;-70
2021/01/11 04:55:08;;;;;;;;;9.50;8.75;;;;;22.09;47.65;99646.47;5035528;28;10291;-71
2021/01/11 04:57:42;;;;;;;;;11.00;8.50;;;;;22.10;48.05;99639.19;5063679;28;10319;-70
2021/01/11 05:00:11;;;;;;;;;12.50;10.25;;;;;22.12;47.93;99631.56;5060661;28;12201;-70
2021/01/11 05:02:44;;;;;;;;;7.25;7.25;;;;;22.11;47.70;99620.03;5063459;28;10238;-72
2021/01/11 05:05:13;;;;;;;;;9.00;9.00;;;;;22.13;47.69;99622.41;5041733;28;10928;-69
2021/01/11 05:07:41;;;;;;;;;12.00;9.00;;;;;22.17;47.83;99619.88;5056972;28;10860;-68
2021/01/11 05:10:10;;;;;;;;;10.50;8.75;;;;;22.18;47.77;99606.09;5056255;28;10187;-69
2021/01/11 05:12:39;;;;;;;;;11.25;11.00;;;;;22.27;47.71;99614.91;5062608;28;10330;-70
2021/01/11 05:15:18;;;;;;;;;8.75;8.00;;;;;22.35;47.73;99602.56;5055159;28;10089;-70
2021/01/11 05:17:46;;;;;;;;;9.00;9.00;;;;;22.33;47.70;99591.34;5055000;28;10305;-71
2021/01/11 05:20:19;;;;;;;;;7.75;7.75;;;;;22.43;47.58;99589.06;5061334;28;10089;-72
2021/01/11 05:22:48;;;;;;;;;8.00;8.00;;;;;22.46;47.40;99590.31;5054966;28;11163;-70
2021/01/11 05:25:22;;;;;;;;;5.75;5.25;;;;;22.52;47.29;99585.56;5023188;28;10121;-69
2021/01/11 05:28:04;;;;;;;;;12.00;8.50;;;;;22.52;46.85;99580.16;5068314;28;10976;-71
2021/01/11 05:30:49;;;;;;;;;5.50;5.50;;;;;22.52;46.32;99570.22;5061415;28;10302;-69
2021/01/11 05:33:20;;;;;;;;;7.25;7.25;;;;;22.57;46.63;99570.00;5047273;28;9957;-71
2021/01/11 05:36:06;;;;;;;;;14.00;9.00;;;;;22.62;47.22;99559.06;5042497;28;10009;-71
2021/01/11 05:38:47;;;;;;;;;5.25;5.25;;;;;22.70;47.11;99552.06;5045539;28;9889;-69
2021/01/11 05:41:18;;;;;;;;;6.25;6.25;;;;;22.75;46.53;99551.88;5058634;28;9866;-72
2021/01/11 05:43:48;;;;;;;;;5.75;5.75;;;;;22.82;46.93;99546.00;5067345;28;9912;-72
2021/01/11 05:46:28;;;;;;;;;7.50;6.00;;;;;22.87;46.89;99533.13;5062088;28;9935;-71
2021/01/11 05:49:17;;;;;;;;;5.50;5.50;;;;;22.92;46.20;99529.47;5059427;28;9952;-72
2021/01/11 05:51:45;;;;;;;;;5.75;4.00;;;;;23.01;46.25;99535.56;5061739;28;10673;-72
2021/01/11 05:54:29;;;;;;;;;6.00;6.00;;;;;23.09;46.80;99518.56;5058625;28;9853;-71
2021/01/11 05:56:58;;;;;;;;;7.50;6.50;;;;;23.20;46.47;99513.53;5061055;28;9819;-71
2021/01/11 05:59:26;;;;;;;;;7.00;7.00;;;;;23.25;45.71;99511.44;5058613;28;9851;-71
2021/01/11 06:02:02;;;;;;;;;5.75;4.50;;;;;23.27;46.07;99506.50;5061030;28;10361;-69
2021/01/11 06:04:31;;;;;;;;;8.75;6.00;;;;;23.34;46.45;99498.66;5060336;28;9575;-71
2021/01/11 06:07:00;;;;;;;;;5.50;5.00;;;;;23.34;46.10;99498.66;5060002;28;9606;-71
2021/01/11 06:09:29;;;;;;;;;6.50;6.50;;;;;23.33;45.96;99483.63;5046570;28;9859;-70
2021/01/11 06:12:00;;;;;;;;;5.00;5.00;;;;;23.32;45.29;99481.28;5059852;28;9617;-69
2021/01/11 06:14:30;;;;;;;;;7.75;6.00;;;;;23.34;45.83;99477.13;5059318;28;9452;-68
2021/01/11 06:16:58;;;;;;;;;5.00;5.00;;;;;23.37;46.01;99471.09;5064898;28;9691;-70
2021/01/11 06:19:27;;;;;;;;;7.25;6.00;;;;;23.41;45.47;99471.19;5071389;28;9728;-70
2021/01/11 06:21:55;;;;;;;;;7.50;4.75;;;;;23.47;45.71;99469.06;5070214;28;9614;-71
2021/01/11 06:24:23;;;;;;;;;8.50;7.00;;;;;23.49;45.55;99458.72;5071559;28;9543;-71
2021/01/11 06:26:52;;;;;;;;;8.50;6.25;;;;;23.52;45.32;99452.69;5071238;28;9714;-69
2021/01/11 06:29:33;;;;;;;;;8.25;7.00;;;;;23.54;45.43;99442.38;5071017;28;9582;-69
2021/01/11 06:32:19;;;;;;;;;6.00;6.00;;;;;23.57;45.19;99431.72;5070983;28;9525;-71
2021/01/11 06:34:47;;;;;;;;;8.00;8.00;;;;;23.55;45.17;99412.44;5067468;28;9521;-68
2021/01/11 06:37:21;;;;;;;;;7.75;7.75;;;;;23.69;45.13;99439.03;5065114;28;10385;-68
2021/01/11 06:39:50;;;;;;;;;9.00;7.25;;;;;23.73;44.83;99426.47;5063785;28;9544;-71
2021/01/11 06:42:19;;;;;;;;;5.75;5.75;;;;;23.74;44.62;99415.34;5052541;28;9684;-69
2021/01/11 06:44:50;;;;;;;;;6.50;6.00;;;;;23.77;44.53;99413.09;5071354;28;9602;-69
2021/01/11 06:47:29;;;;;;;;;6.25;6.00;;;;;23.78;44.46;99404.69;5050364;28;9943;-72
2021/01/11 06:50:08;;;;;;;;;6.75;6.75;;;;;23.84;44.56;99402.56;5067174;28;10537;-71
2021/01/11 06:52:38;;;;;;;;;7.75;7.00;;;;;23.92;44.36;99405.13;5056053;28;9619;-70
2021/01/11 06:55:12;;;;;;;;;8.00;8.00;;;;;23.98;44.50;99402.97;5060653;28;9827;-70
2021/01/11 06:57:40;;;;;;;;;8.25;5.50;;;;;24.06;44.29;99400.16;5054687;28;9744;-69
2021/01/11 07:00:11;;;;;;;;;8.25;8.25;;;;;24.11;44.28;99390.28;5050911;28;9514;-75
2021/01/11 07:02:43;;;;;;;;;4.25;4.25;;;;;24.14;44.31;99386.91;5050058;28;10193;-70
2021/01/11 07:05:33;;;;;;;;;9.25;7.75;;;;;24.17;44.11;99388.91;5052125;28;9520;-70
2021/01/11 07:08:06;;;;;;;;;8.00;8.00;;;;;24.18;43.79;99390.47;5062298;28;9560;-70
2021/01/11 07:10:40;;;;;;;;;9.00;8.25;;;;;24.20;43.98;99383.63;5062081;28;9525;-70
2021/01/11 07:13:18;;;;;;;;;2.00;2.00;;;;;24.25;43.72;99379.91;5060921;28;9589;-70
2021/01/11 07:15:54;;;;;;;;;6.50;6.50;;;;;24.29;43.62;99378.13;5057393;28;9540;-70
2021/01/11 07:18:35;;;;;;;;;7.00;7.00;;;;;24.30;43.59;99372.38;5062454;28;9460;-69
2021/01/11 07:21:25;;;;;;;;;9.00;9.00;;;;;24.34;43.55;99385.97;5060982;28;9433;-69
2021/01/11 07:23:56;;;;;;;;;8.00;8.00;;;;;24.34;43.33;99383.28;5061606;28;9523;-69
2021/01/11 07:26:26;;;;;;;;;7.50;7.50;;;;;24.35;43.31;99374.84;5044239;28;9649;-70
2021/01/11 07:28:58;;;;;;;;;11.50;8.50;;;;;24.39;42.99;99364.16;5056693;28;9532;-72
2021/01/11 07:31:30;;;;;;;;;5.75;5.75;;;;;24.34;42.79;99373.28;5040943;28;10265;-70
2021/01/11 07:34:09;;;;;;;;;10.75;9.00;;;;;24.28;42.49;99369.25;5058276;28;9480;-69
2021/01/11 07:36:41;;;;;;;;;13.25;10.25;;;;;24.35;42.95;99366.75;5061217;28;9571;-71
2021/01/11 07:39:27;;;;;;;;;10.50;9.50;;;;;24.34;42.48;99361.69;5064918;28;9504;-70
2021/01/11 07:42:00;;;;;;;;;9.00;7.50;;;;;24.38;42.98;99366.06;5062043;28;9549;-70
2021/01/11 07:44:35;;;;;;;;;9.00;7.75;;;;;24.37;42.54;99355.63;5062170;28;9525;-69
2021/01/11 07:47:07;;;;;;;;;12.25;11.50;;;;;24.40;42.84;99365.72;5061629;28;9539;-69
2021/01/11 07:49:41;;;;;;;;;7.75;7.75;;;;;24.38;42.66;99362.59;5061801;28;9599;-72
2021/01/11 07:52:16;;;;;;;;;9.75;9.75;;;;;24.36;42.53;99375.63;5060615;28;10265;-71
2021/01/11 07:54:46;;;;;;;;;11.25;9.50;;;;;24.33;42.53;99368.22;5063136;28;9586;-70
2021/01/11 07:57:15;;;;;;;;;9.00;9.00;;;;;24.33;42.75;99371.69;5062750;28;9679;-70
2021/01/11 07:59:44;;;;;;;;;10.75;9.75;;;;;24.33;42.50;99382.50;5061420;28;9501;-68
2021/01/11 08:02:14;;;;;;;;;11.50;9.75;;;;;24.35;42.02;99376.75;5062273;28;9669;-70
2021/01/11 08:04:43;;;;;;;;;12.75;10.75;;;;;24.39;42.69;99374.94;5061147;28;9459;-72
2021/01/11 08:07:13;;;;;;;;;8.67;8.67;;;;;24.42;42.72;99373.47;5057635;28;9523;-74
2021/01/11 08:09:42;;;;;;;;;8.25;8.25;;;;;24.39;42.58;99374.94;5065001;28;9268;-71
2021/01/11 08:12:17;;;;;;;;;19.50;19.50;;;;;24.36;42.71;99378.31;5067557;28;9675;-70
2021/01/11 08:14:47;;;;;;;;;9.75;9.75;;;;;24.35;42.45;99366.75;5064166;28;9982;-70
2021/01/11 08:17:22;;;;;;;;;15.00;13.25;;;;;24.33;42.19;99376.31;5059525;28;9447;-70
2021/01/11 08:19:56;;;;;;;;;15.25;13.50;;;;;24.28;41.10;99376.56;5060914;28;9586;-70
2021/01/11 08:22:27;;;;;;;;;12.00;9.50;;;;;24.35;42.34;99379.44;5062983;28;9582;-72
2021/01/11 08:24:57;;;;;;;;;13.50;13.50;;;;;24.33;42.27;99381.69;5066413;28;9827;-70
2021/01/11 08:27:46;;;;;;;;;16.25;14.25;;;;;24.31;42.29;99390.13;5060473;28;9698;-70
2021/01/11 08:30:16;;;;;;;;;14.75;14.00;;;;;24.28;42.06;99376.56;5060291;28;9682;-69
2021/01/11 08:32:45;;;;;;;;;18.00;15.50;;;;;24.17;42.03;99376.22;5056787;28;9680;-70
2021/01/11 08:35:16;;;;;;;;;16.25;15.25;;;;;24.19;42.29;99387.44;5068650;28;9872;-69
2021/01/11 08:37:44;;;;;;;;;14.75;12.75;;;;;24.18;42.06;99387.78;5059935;28;10479;-69
2021/01/11 08:40:19;;;;;;;;;13.25;12.00;;;;;24.17;42.01;99387.00;5060092;28;9591;-69
2021/01/11 08:42:48;;;;;;;;;12.50;10.00;;;;;24.10;42.15;99380.63;5061201;28;9759;-68
2021/01/11 08:45:34;;;;;;;;;9.50;9.50;;;;;24.16;42.05;99392.72;5060484;28;9847;-69
2021/01/11 08:48:02;;;;;;;;;15.00;13.25;;;;;24.13;42.28;99386.09;5064075;28;9431;-69
2021/01/11 08:50:34;;;;;;;;;15.75;14.50;;;;;24.12;42.08;99392.63;5059673;28;9593;-69
2021/01/11 08:53:21;;;;;;;;;12.75;11.25;;;;;24.15;42.33;99391.16;5060396;28;9924;-69
2021/01/11 08:55:56;;;;;;;;;15.00;13.25;;;;;24.17;42.25;99386.22;5045326;28;9584;-69
2021/01/11 08:58:25;;;;;;;;;10.50;10.50;;;;;24.13;41.58;99379.94;5063487;28;9612;-70
2021/01/11 09:01:14;;;;;;;;;10.75;10.00;;;;;24.11;42.17;99390.28;5061219;28;9780;-69
2021/01/11 09:03:58;;;;;;;;;10.00;10.00;;;;;24.12;42.07;99402.63;5067270;28;9766;-71
2021/01/11 09:06:42;;;;;;;;;10.00;9.50;;;;;24.11;41.72;99401.06;5060912;28;9573;-71
2021/01/11 09:09:25;;;;;;;;;9.75;8.25;;;;;24.10;41.73;99388.69;5063103;28;9533;-71
2021/01/11 09:12:00;;;;;;;;;9.00;9.00;;;;;24.12;40.82;99397.22;5061315;28;9509;-69
2021/01/11 09:14:30;;;;;;;;;12.50;12.00;;;;;24.16;42.26;99403.50;5055604;28;9586;-69
2021/01/11 09:17:02;;;;;;;;;10.75;10.75;;;;;24.17;42.28;99399.69;5071244;28;9758;-69
2021/01/11 09:19:31;;;;;;;;;11.00;11.00;;;;;24.12;40.89;99408.00;5072538;28;9691;-70
2021/01/11 09:22:14;;;;;;;;;12.50;12.50;;;;;24.10;41.81;99399.47;5064451;28;9683;-68
2021/01/11 09:24:44;;;;;;;;;15.75;12.75;;;;;24.05;41.83;99409.38;5060930;28;9661;-70
2021/01/11 09:27:12;;;;;;;;;15.75;10.50;;;;;24.05;41.91;99411.28;5062605;28;9888;-69
2021/01/11 09:29:40;;;;;;;;;13.25;12.25;;;;;24.03;42.32;99406.22;5051769;28;9521;-68
2021/01/11 09:32:09;;;;;;;;;12.00;12.00;;;;;24.04;42.14;99407.81;5051477;28;9805;-69
2021/01/11 09:34:37;;;;;;;;;14.50;13.50;;;;;23.97;42.03;99407.59;5051739;28;9681;-68
2021/01/11 09:37:11;;;;;;;;;17.00;15.00;;;;;23.92;41.99;99405.13;5052073;28;9849;-69
2021/01/11 09:39:41;;;;;;;;;19.50;13.25;;;;;23.86;41.82;99416.47;5051780;28;9977;-69
2021/01/11 09:42:10;;;;;;;;;14.50;13.50;;;;;23.79;41.37;99419.72;5053674;28;9680;-68
2021/01/11 09:44:38;;;;;;;;;13.00;13.00;;;;;23.77;42.01;99416.59;5060324;28;9838;-68
2021/01/11 09:47:10;;;;;;;;;15.50;13.75;;;;;23.78;41.57;99415.47;5065763;28;9855;-68
2021/01/11 09:49:39;;;;;;;;;14.00;14.00;;;;;23.75;41.89;99422.31;5061337;28;9764;-69
2021/01/11 09:52:07;;;;;;;;;3.50;3.50;;;;;23.68;41.76;99424.78;5058725;28;9675;-69
2021/01/11 09:54:35;;;;;;;;;13.75;9.25;;;;;23.66;41.76;99426.25;5063878;28;9515;-68
2021/01/11 09:57:04;;;;;;;;;13.50;12.75;;;;;23.58;41.75;99419.84;5065332;28;9759;-68
2021/01/11 09:59:32;;;;;;;;;12.25;12.25;;;;;23.54;41.61;99448.56;5055413;28;9746;-69
2021/01/11 10:02:01;;;;;;;;;23.50;17.00;;;;;23.53;41.93;99436.19;5058917;28;9674;-67
2021/01/11 10:04:30;;;;;;;;;16.75;16.00;;;;;23.50;41.15;99444.94;5063670;28;9784;-67
2021/01/11 10:06:59;;;;;;;;;19.25;14.50;;;;;23.48;41.95;99446.41;5051395;28;10966;-67
2021/01/11 10:09:30;;;;;;;;;9.50;9.25;;;;;23.43;41.78;99450.09;5049762;28;9874;-67
2021/01/11 10:12:02;;;;;;;;;10.75;6.00;;;;;23.40;41.72;99448.84;5051465;28;9747;-67
2021/01/11 10:14:32;;;;;;;;;16.50;12.50;;;;;23.42;42.09;99456.59;5051735;28;9917;-67
2021/01/11 10:17:01;;;;;;;;;11.50;10.50;;;;;23.37;42.13;99454.16;5051655;28;10012;-67
2021/01/11 10:19:30;;;;;;;;;17.00;14.75;;;;;23.36;42.00;99464.13;5051873;28;10642;-67
2021/01/11 10:22:02;;;;;;;;;19.00;17.50;;;;;23.27;41.85;99457.25;5051799;28;10171;-67
2021/01/11 10:24:30;;;;;;;;;20.50;18.25;;;;;23.22;41.39;99465.56;5051951;28;10002;-67
2021/01/11 10:27:00;;;;;;;;;18.50;18.25;;;;;23.22;41.90;99469.03;5051887;28;10035;-67
2021/01/11 10:29:28;;;;;;;;;22.50;17.00;;;;;23.21;41.95;99477.44;5051930;28;10080;-67
2021/01/11 10:31:56;;;;;;;;;20.00;19.75;;;;;23.17;41.98;99480.00;5034451;28;10040;-67
2021/01/11 10:34:25;;;;;;;;;21.50;18.25;;;;;23.13;42.04;99489.06;5051942;28;10089;-67
2021/01/11 10:36:55;;;;;;;;;20.50;18.50;;;;;23.08;42.14;99482.78;5051847;28;10175;-67
2021/01/11 10:39:25;;;;;;;;;25.75;18.75;;;;;23.02;41.26;99494.88;5052143;28;10184;-67
2021/01/11 10:41:57;;;;;;;;;24.00;23.50;;;;;22.98;42.04;99496.66;5051842;28;10377;-67
2021/01/11 10:44:26;;;;;;;;;21.00;19.25;;;;;22.94;41.02;99505.72;5051965;28;10493;-67
2021/01/11 10:46:58;;;;;;;;;28.00;22.25;;;;;22.93;42.36;99506.81;5051084;28;10245;-67
2021/01/11 10:49:28;;;;;;;;;23.50;22.50;;;;;22.92;41.78;99511.41;5051769;28;10655;-67
2021/01/11 10:51:57;;;;;;;;;32.75;23.75;;;;;22.87;42.18;99521.59;5051649;28;11146;-67
2021/01/11 10:54:27;;;;;;;;;20.50;20.00;;;;;22.81;42.03;99518.31;5051682;28;10595;-67
2021/01/11 10:56:55;;;;;;;;;28.75;24.75;;;;;22.77;41.87;99528.91;5051596;28;10318;-67
2021/01/11 10:59:23;;;;;;;;;23.00;21.50;;;;;22.72;41.55;99531.00;5051676;28;10410;-67
2021/01/11 11:01:52;;;;;;;;;20.75;19.50;;;;;22.73;42.42;99528.00;5050510;28;10409;-67
2021/01/11 11:04:23;;;;;;;;;21.50;20.00;;;;;22.71;42.13;99529.44;5051577;28;10403;-67
2021/01/11 11:06:57;;;;;;;;;23.00;21.00;;;;;22.67;42.42;99532.00;5034032;28;10390;-67
2021/01/11 11:09:26;;;;;;;;;21.50;19.50;;;;;22.67;42.20;99537.38;5054292;28;10328;-67
2021/01/11 11:11:55;;;;;;;;;16.75;16.75;;;;;22.63;41.70;99541.03;5056214;28;10244;-67
2021/01/11 11:14:23;;;;;;;;;19.75;14.50;;;;;22.62;41.54;99542.16;5055349;28;10341;-67
2021/01/11 11:16:54;;;;;;;;;23.00;19.75;;;;;22.62;42.26;99542.94;5055307;28;10371;-67
2021/01/11 11:19:22;;;;;;;;;21.75;19.75;;;;;22.64;42.25;99546.09;5055286;28;10323;-67
2021/01/11 11:21:52;;;;;;;;;22.00;19.25;;;;;22.62;42.05;99553.69;5055413;28;10402;-67
2021/01/11 11:24:20;;;;;;;;;28.25;25.25;;;;;22.59;41.80;99546.28;5055359;28;10455;-67
2021/01/11 11:26:48;;;;;;;;;23.50;22.00;;;;;22.59;42.21;99557.03;5055194;28;10400;-67
2021/01/11 11:29:16;;;;;;;;;20.25;17.75;;;;;22.59;42.57;99558.94;5055885;28;10509;-67
2021/01/11 11:31:44;;;;;;;;;24.50;21.50;;;;;22.60;42.47;99555.13;5055434;28;10289;-67
2021/01/11 11:34:13;;;;;;;;;21.25;21.25;;;;;22.58;42.20;99562.75;5053931;28;10540;-66
2021/01/11 11:36:41;;;;;;;;;20.75;20.75;;;;;22.55;41.48;99560.69;5054958;28;10548;-67
2021/01/11 11:39:12;;;;;;;;;19.75;17.50;;;;;22.55;41.90;99564.19;5055288;28;10482;-67
2021/01/11 11:41:41;;;;;;;;;21.25;18.00;;;;;22.53;42.18;99565.63;5054908;28;10951;-67
2021/01/11 11:44:10;;;;;;;;;23.75;21.00;;;;;22.52;42.90;99564.81;5054826;28;10440;-67
2021/01/11 11:46:38;;;;;;;;;22.00;18.25;;;;;22.46;42.05;99574.19;5055562;28;10378;-67